sensor_id;sensor_type;location;lat;lon;timestamp;P1;durP1;ratioP1;P2;durP2;ratioP2
22525;SDS011;11429;50.842;4.386;2022-12-07T00:01:18;18.00;;;13.13;;
22525;SDS011;11429;50.842;4.386;2022-12-07T00:03:46;18.58;;;13.73;;
22525;SDS011;11429;50.842;4.386;2022-12-07T00:06:13;21.08;;;14.00;;
22525;SDS011;11429;50.842;4.386;2022-12-07T00:08:40;19.67;;;15.48;;
22525;SDS011;11429;50.842;4.386;2022-12-07T00:11:08;19.75;;;14.32;;
22525;SDS011;11429;50.842;4.386;2022-12-07T00:13:35;22.08;;;14.88;;
22525;SDS011;11429;50.842;4.386;2022-12-07T00:16:03;23.17;;;15.00;;
22525;SDS011;11429;50.842;4.386;2022-12-07T00:18:30;17.60;;;14.60;;
22525;SDS011;11429;50.842;4.386;2022-12-07T00:21:10;17.05;;;13.85;;
22525;SDS011;11429;50.842;4.386;2022-12-07T00:23:36;20.95;;;16.10;;
22525;SDS011;11429;50.842;4.386;2022-12-07T00:26:03;21.05;;;16.05;;
22525;SDS011;11429;50.842;4.386;2022-12-07T00:28:32;22.23;;;16.60;;
22525;SDS011;11429;50.842;4.386;2022-12-07T00:31:00;25.30;;;16.98;;
22525;SDS011;11429;50.842;4.386;2022-12-07T00:33:27;22.48;;;16.17;;
22525;SDS011;11429;50.842;4.386;2022-12-07T00:35:57;21.50;;;15.70;;
22525;SDS011;11429;50.842;4.386;2022-12-07T00:38:24;24.45;;;17.38;;
22525;SDS011;11429;50.842;4.386;2022-12-07T00:40:56;24.48;;;17.40;;
22525;SDS011;11429;50.842;4.386;2022-12-07T00:43:23;23.95;;;18.20;;
22525;SDS011;11429;50.842;4.386;2022-12-07T00:45:49;24.48;;;18.15;;
22525;SDS011;11429;50.842;4.386;2022-12-07T00:48:15;25.25;;;17.75;;
22525;SDS011;11429;50.842;4.386;2022-12-07T00:50:41;26.13;;;17.92;;
22525;SDS011;11429;50.842;4.386;2022-12-07T00:53:06;24.90;;;18.38;;
22525;SDS011;11429;50.842;4.386;2022-12-07T00:55:33;27.38;;;19.75;;
22525;SDS011;11429;50.842;4.386;2022-12-07T00:57:59;25.83;;;18.35;;
22525;SDS011;11429;50.842;4.386;2022-12-07T01:00:26;27.10;;;19.33;;
22525;SDS011;11429;50.842;4.386;2022-12-07T01:02:51;23.52;;;17.83;;
22525;SDS011;11429;50.842;4.386;2022-12-07T01:05:17;22.92;;;17.55;;
22525;SDS011;11429;50.842;4.386;2022-12-07T01:07:44;26.50;;;17.80;;
22525;SDS011;11429;50.842;4.386;2022-12-07T01:10:11;30.30;;;18.38;;
22525;SDS011;11429;50.842;4.386;2022-12-07T01:12:38;28.23;;;18.13;;
22525;SDS011;11429;50.842;4.386;2022-12-07T01:15:04;24.13;;;17.63;;
22525;SDS011;11429;50.842;4.386;2022-12-07T01:17:30;26.13;;;18.10;;
22525;SDS011;11429;50.842;4.386;2022-12-07T01:19:56;24.88;;;18.10;;
22525;SDS011;11429;50.842;4.386;2022-12-07T01:22:22;25.55;;;18.05;;
22525;SDS011;11429;50.842;4.386;2022-12-07T01:24:48;26.23;;;18.42;;
22525;SDS011;11429;50.842;4.386;2022-12-07T01:27:13;27.63;;;18.08;;
22525;SDS011;11429;50.842;4.386;2022-12-07T01:29:39;25.48;;;16.42;;
22525;SDS011;11429;50.842;4.386;2022-12-07T01:32:05;30.17;;;19.00;;
22525;SDS011;11429;50.842;4.386;2022-12-07T01:34:31;22.90;;;16.95;;
22525;SDS011;11429;50.842;4.386;2022-12-07T01:36:57;23.20;;;17.27;;
22525;SDS011;11429;50.842;4.386;2022-12-07T01:39:23;24.30;;;18.17;;
22525;SDS011;11429;50.842;4.386;2022-12-07T01:41:49;26.17;;;17.58;;
22525;SDS011;11429;50.842;4.386;2022-12-07T01:46:41;23.17;;;17.30;;
22525;SDS011;11429;50.842;4.386;2022-12-07T01:49:10;23.50;;;17.08;;
22525;SDS011;11429;50.842;4.386;2022-12-07T01:51:40;22.15;;;16.77;;
22525;SDS011;11429;50.842;4.386;2022-12-07T01:54:07;22.90;;;17.00;;
22525;SDS011;11429;50.842;4.386;2022-12-07T01:56:34;26.73;;;17.10;;
22525;SDS011;11429;50.842;4.386;2022-12-07T01:59:02;20.60;;;15.80;;
22525;SDS011;11429;50.842;4.386;2022-12-07T02:01:27;21.23;;;15.75;;
22525;SDS011;11429;50.842;4.386;2022-12-07T02:03:53;23.40;;;16.45;;
22525;SDS011;11429;50.842;4.386;2022-12-07T02:06:20;21.17;;;16.45;;
22525;SDS011;11429;50.842;4.386;2022-12-07T02:08:48;23.95;;;16.35;;
22525;SDS011;11429;50.842;4.386;2022-12-07T02:11:14;23.15;;;16.63;;
22525;SDS011;11429;50.842;4.386;2022-12-07T02:13:40;21.98;;;15.13;;
22525;SDS011;11429;50.842;4.386;2022-12-07T02:16:18;23.38;;;14.88;;
22525;SDS011;11429;50.842;4.386;2022-12-07T02:28:01;24.27;;;15.60;;
22525;SDS011;11429;50.842;4.386;2022-12-07T02:30:47;21.27;;;16.17;;
22525;SDS011;11429;50.842;4.386;2022-12-07T02:33:19;19.50;;;15.60;;
22525;SDS011;11429;50.842;4.386;2022-12-07T02:35:59;22.35;;;15.10;;
22525;SDS011;11429;50.842;4.386;2022-12-07T02:38:28;24.02;;;15.40;;
22525;SDS011;11429;50.842;4.386;2022-12-07T02:41:04;20.33;;;14.70;;
22525;SDS011;11429;50.842;4.386;2022-12-07T02:43:38;20.35;;;14.50;;
22525;SDS011;11429;50.842;4.386;2022-12-07T02:46:08;20.48;;;13.60;;
22525;SDS011;11429;50.842;4.386;2022-12-07T02:48:37;20.60;;;14.57;;
22525;SDS011;11429;50.842;4.386;2022-12-07T02:51:04;19.85;;;13.15;;
22525;SDS011;11429;50.842;4.386;2022-12-07T02:53:38;19.60;;;13.40;;
22525;SDS011;11429;50.842;4.386;2022-12-07T03:06:48;19.65;;;13.27;;
22525;SDS011;11429;50.842;4.386;2022-12-07T03:09:23;17.13;;;12.88;;
22525;SDS011;11429;50.842;4.386;2022-12-07T03:12:07;18.10;;;13.23;;
22525;SDS011;11429;50.842;4.386;2022-12-07T03:14:41;19.75;;;14.05;;
22525;SDS011;11429;50.842;4.386;2022-12-07T03:17:27;17.60;;;12.77;;
22525;SDS011;11429;50.842;4.386;2022-12-07T03:19:59;19.20;;;12.88;;
22525;SDS011;11429;50.842;4.386;2022-12-07T03:22:29;17.90;;;12.48;;
22525;SDS011;11429;50.842;4.386;2022-12-07T03:24:58;15.05;;;12.32;;
22525;SDS011;11429;50.842;4.386;2022-12-07T03:27:30;16.83;;;12.13;;
22525;SDS011;11429;50.842;4.386;2022-12-07T03:30:00;16.67;;;12.45;;
22525;SDS011;11429;50.842;4.386;2022-12-07T03:37:57;19.42;;;12.65;;
22525;SDS011;11429;50.842;4.386;2022-12-07T03:40:40;19.38;;;11.88;;
22525;SDS011;11429;50.842;4.386;2022-12-07T03:43:08;17.33;;;11.90;;
22525;SDS011;11429;50.842;4.386;2022-12-07T03:48:07;19.98;;;13.43;;
22525;SDS011;11429;50.842;4.386;2022-12-07T03:53:15;20.67;;;13.45;;
22525;SDS011;11429;50.842;4.386;2022-12-07T03:55:47;19.67;;;14.00;;
22525;SDS011;11429;50.842;4.386;2022-12-07T03:58:15;18.98;;;13.45;;
22525;SDS011;11429;50.842;4.386;2022-12-07T04:00:44;18.05;;;13.50;;
22525;SDS011;11429;50.842;4.386;2022-12-07T04:03:10;18.38;;;13.55;;
22525;SDS011;11429;50.842;4.386;2022-12-07T04:05:36;16.20;;;12.25;;
22525;SDS011;11429;50.842;4.386;2022-12-07T04:08:02;19.45;;;12.95;;
22525;SDS011;11429;50.842;4.386;2022-12-07T04:10:28;19.08;;;12.95;;
22525;SDS011;11429;50.842;4.386;2022-12-07T04:12:54;16.70;;;12.02;;
22525;SDS011;11429;50.842;4.386;2022-12-07T04:15:20;18.33;;;12.50;;
22525;SDS011;11429;50.842;4.386;2022-12-07T04:17:46;18.15;;;11.88;;
22525;SDS011;11429;50.842;4.386;2022-12-07T04:20:12;16.63;;;12.32;;
22525;SDS011;11429;50.842;4.386;2022-12-07T04:22:37;19.70;;;12.40;;
22525;SDS011;11429;50.842;4.386;2022-12-07T04:25:03;21.23;;;12.52;;
22525;SDS011;11429;50.842;4.386;2022-12-07T04:27:29;18.33;;;12.10;;
22525;SDS011;11429;50.842;4.386;2022-12-07T04:29:55;16.98;;;11.40;;
22525;SDS011;11429;50.842;4.386;2022-12-07T04:32:21;14.98;;;10.95;;
22525;SDS011;11429;50.842;4.386;2022-12-07T04:34:47;19.38;;;11.85;;
22525;SDS011;11429;50.842;4.386;2022-12-07T04:37:13;20.08;;;10.98;;
22525;SDS011;11429;50.842;4.386;2022-12-07T04:39:39;17.17;;;11.82;;
22525;SDS011;11429;50.842;4.386;2022-12-07T04:42:04;17.73;;;12.15;;
22525;SDS011;11429;50.842;4.386;2022-12-07T04:44:31;16.70;;;12.77;;
22525;SDS011;11429;50.842;4.386;2022-12-07T04:46:58;19.48;;;13.27;;
22525;SDS011;11429;50.842;4.386;2022-12-07T04:49:24;21.27;;;14.73;;
22525;SDS011;11429;50.842;4.386;2022-12-07T04:51:50;23.73;;;14.73;;
22525;SDS011;11429;50.842;4.386;2022-12-07T04:54:17;23.52;;;15.55;;
22525;SDS011;11429;50.842;4.386;2022-12-07T04:56:44;22.83;;;16.30;;
22525;SDS011;11429;50.842;4.386;2022-12-07T04:59:10;19.58;;;14.65;;
22525;SDS011;11429;50.842;4.386;2022-12-07T05:01:37;22.48;;;16.02;;
22525;SDS011;11429;50.842;4.386;2022-12-07T05:04:03;18.88;;;15.02;;
22525;SDS011;11429;50.842;4.386;2022-12-07T05:06:29;22.15;;;14.43;;
22525;SDS011;11429;50.842;4.386;2022-12-07T05:08:54;23.25;;;15.98;;
22525;SDS011;11429;50.842;4.386;2022-12-07T05:11:20;23.13;;;15.52;;
22525;SDS011;11429;50.842;4.386;2022-12-07T05:14:25;23.15;;;15.30;;
22525;SDS011;11429;50.842;4.386;2022-12-07T05:16:50;24.63;;;15.13;;
22525;SDS011;11429;50.842;4.386;2022-12-07T05:19:17;23.05;;;15.10;;
22525;SDS011;11429;50.842;4.386;2022-12-07T05:21:43;24.40;;;15.60;;
22525;SDS011;11429;50.842;4.386;2022-12-07T05:24:10;21.10;;;15.38;;
22525;SDS011;11429;50.842;4.386;2022-12-07T05:26:38;26.33;;;16.50;;
22525;SDS011;11429;50.842;4.386;2022-12-07T05:29:04;21.77;;;15.70;;
22525;SDS011;11429;50.842;4.386;2022-12-07T05:31:30;22.48;;;15.30;;
22525;SDS011;11429;50.842;4.386;2022-12-07T05:33:56;20.58;;;15.15;;
22525;SDS011;11429;50.842;4.386;2022-12-07T05:36:22;21.17;;;15.48;;
22525;SDS011;11429;50.842;4.386;2022-12-07T05:38:48;23.33;;;14.23;;
22525;SDS011;11429;50.842;4.386;2022-12-07T05:41:17;21.40;;;14.30;;
22525;SDS011;11429;50.842;4.386;2022-12-07T05:44:02;18.48;;;13.73;;
22525;SDS011;11429;50.842;4.386;2022-12-07T05:46:29;23.13;;;14.98;;
22525;SDS011;11429;50.842;4.386;2022-12-07T05:48:55;20.17;;;14.27;;
22525;SDS011;11429;50.842;4.386;2022-12-07T05:51:20;20.23;;;13.73;;
22525;SDS011;11429;50.842;4.386;2022-12-07T05:53:46;18.17;;;13.93;;
22525;SDS011;11429;50.842;4.386;2022-12-07T05:56:12;23.88;;;14.98;;
22525;SDS011;11429;50.842;4.386;2022-12-07T05:58:38;20.52;;;13.48;;
22525;SDS011;11429;50.842;4.386;2022-12-07T06:01:22;19.50;;;12.50;;
22525;SDS011;11429;50.842;4.386;2022-12-07T06:03:47;17.20;;;12.70;;
22525;SDS011;11429;50.842;4.386;2022-12-07T06:06:13;20.55;;;13.00;;
22525;SDS011;11429;50.842;4.386;2022-12-07T06:08:39;25.35;;;13.40;;
22525;SDS011;11429;50.842;4.386;2022-12-07T06:11:04;20.77;;;13.63;;
22525;SDS011;11429;50.842;4.386;2022-12-07T06:13:56;18.70;;;13.57;;
22525;SDS011;11429;50.842;4.386;2022-12-07T06:16:22;21.92;;;13.88;;
22525;SDS011;11429;50.842;4.386;2022-12-07T06:18:47;19.55;;;12.82;;
22525;SDS011;11429;50.842;4.386;2022-12-07T06:21:13;20.05;;;12.65;;
22525;SDS011;11429;50.842;4.386;2022-12-07T06:23:39;19.02;;;11.52;;
22525;SDS011;11429;50.842;4.386;2022-12-07T06:26:11;18.55;;;11.88;;
22525;SDS011;11429;50.842;4.386;2022-12-07T06:28:36;17.13;;;11.25;;
22525;SDS011;11429;50.842;4.386;2022-12-07T06:31:02;21.88;;;11.15;;
22525;SDS011;11429;50.842;4.386;2022-12-07T06:33:28;15.10;;;10.50;;
22525;SDS011;11429;50.842;4.386;2022-12-07T06:35:54;19.38;;;11.00;;
22525;SDS011;11429;50.842;4.386;2022-12-07T06:38:20;17.45;;;11.35;;
22525;SDS011;11429;50.842;4.386;2022-12-07T06:40:46;22.65;;;12.63;;
22525;SDS011;11429;50.842;4.386;2022-12-07T06:43:12;15.40;;;11.45;;
22525;SDS011;11429;50.842;4.386;2022-12-07T06:45:37;21.23;;;12.25;;
22525;SDS011;11429;50.842;4.386;2022-12-07T06:48:03;14.60;;;11.25;;
22525;SDS011;11429;50.842;4.386;2022-12-07T06:50:29;17.35;;;11.45;;
22525;SDS011;11429;50.842;4.386;2022-12-07T06:52:54;16.00;;;11.38;;
22525;SDS011;11429;50.842;4.386;2022-12-07T06:55:20;24.10;;;11.70;;
22525;SDS011;11429;50.842;4.386;2022-12-07T06:57:46;16.45;;;11.88;;
22525;SDS011;11429;50.842;4.386;2022-12-07T07:00:12;17.92;;;11.02;;
22525;SDS011;11429;50.842;4.386;2022-12-07T07:02:38;22.15;;;11.77;;
22525;SDS011;11429;50.842;4.386;2022-12-07T07:05:03;16.23;;;10.68;;
22525;SDS011;11429;50.842;4.386;2022-12-07T07:07:29;15.65;;;10.63;;
22525;SDS011;11429;50.842;4.386;2022-12-07T07:09:55;17.08;;;10.32;;
22525;SDS011;11429;50.842;4.386;2022-12-07T07:12:21;19.27;;;13.50;;
22525;SDS011;11429;50.842;4.386;2022-12-07T07:14:46;24.55;;;15.07;;
22525;SDS011;11429;50.842;4.386;2022-12-07T07:17:12;18.17;;;11.90;;
22525;SDS011;11429;50.842;4.386;2022-12-07T07:19:38;17.58;;;10.57;;
22525;SDS011;11429;50.842;4.386;2022-12-07T07:22:03;15.93;;;10.32;;
22525;SDS011;11429;50.842;4.386;2022-12-07T07:24:29;15.52;;;10.55;;
22525;SDS011;11429;50.842;4.386;2022-12-07T07:26:55;14.95;;;10.25;;
22525;SDS011;11429;50.842;4.386;2022-12-07T07:29:21;17.45;;;9.68;;
22525;SDS011;11429;50.842;4.386;2022-12-07T07:31:46;18.65;;;10.93;;
22525;SDS011;11429;50.842;4.386;2022-12-07T07:34:12;21.88;;;10.93;;
22525;SDS011;11429;50.842;4.386;2022-12-07T07:36:37;16.48;;;9.95;;
22525;SDS011;11429;50.842;4.386;2022-12-07T07:39:03;13.45;;;9.57;;
22525;SDS011;11429;50.842;4.386;2022-12-07T07:41:29;18.77;;;10.23;;
22525;SDS011;11429;50.842;4.386;2022-12-07T07:43:55;22.17;;;10.20;;
22525;SDS011;11429;50.842;4.386;2022-12-07T07:46:21;19.52;;;10.95;;
22525;SDS011;11429;50.842;4.386;2022-12-07T07:48:46;17.50;;;10.90;;
22525;SDS011;11429;50.842;4.386;2022-12-07T07:51:12;14.48;;;10.57;;
22525;SDS011;11429;50.842;4.386;2022-12-07T07:53:38;17.13;;;11.65;;
22525;SDS011;11429;50.842;4.386;2022-12-07T07:56:03;20.17;;;11.48;;
22525;SDS011;11429;50.842;4.386;2022-12-07T07:58:29;17.80;;;11.10;;
22525;SDS011;11429;50.842;4.386;2022-12-07T08:00:55;18.67;;;12.93;;
22525;SDS011;11429;50.842;4.386;2022-12-07T08:03:21;17.60;;;12.27;;
22525;SDS011;11429;50.842;4.386;2022-12-07T08:05:46;19.08;;;12.13;;
22525;SDS011;11429;50.842;4.386;2022-12-07T08:08:12;16.05;;;11.40;;
22525;SDS011;11429;50.842;4.386;2022-12-07T08:10:38;19.50;;;11.80;;
22525;SDS011;11429;50.842;4.386;2022-12-07T08:13:04;17.75;;;11.13;;
22525;SDS011;11429;50.842;4.386;2022-12-07T08:15:36;18.95;;;11.63;;
22525;SDS011;11429;50.842;4.386;2022-12-07T08:18:04;18.25;;;11.50;;
22525;SDS011;11429;50.842;4.386;2022-12-07T08:20:30;17.50;;;11.10;;
22525;SDS011;11429;50.842;4.386;2022-12-07T08:22:58;16.15;;;11.48;;
22525;SDS011;11429;50.842;4.386;2022-12-07T08:25:25;18.05;;;11.48;;
22525;SDS011;11429;50.842;4.386;2022-12-07T08:27:51;15.55;;;11.35;;
22525;SDS011;11429;50.842;4.386;2022-12-07T08:30:17;16.45;;;10.57;;
22525;SDS011;11429;50.842;4.386;2022-12-07T08:32:46;19.02;;;11.30;;
22525;SDS011;11429;50.842;4.386;2022-12-07T08:35:14;15.80;;;10.75;;
22525;SDS011;11429;50.842;4.386;2022-12-07T08:37:40;15.43;;;11.07;;
22525;SDS011;11429;50.842;4.386;2022-12-07T08:40:08;18.92;;;12.38;;
22525;SDS011;11429;50.842;4.386;2022-12-07T08:42:35;20.23;;;12.20;;
22525;SDS011;11429;50.842;4.386;2022-12-07T08:45:06;20.38;;;11.95;;
22525;SDS011;11429;50.842;4.386;2022-12-07T08:47:34;16.35;;;10.93;;
22525;SDS011;11429;50.842;4.386;2022-12-07T08:50:01;15.70;;;10.77;;
22525;SDS011;11429;50.842;4.386;2022-12-07T08:52:30;19.67;;;10.77;;
22525;SDS011;11429;50.842;4.386;2022-12-07T08:54:57;18.55;;;10.38;;
22525;SDS011;11429;50.842;4.386;2022-12-07T08:57:26;15.70;;;10.57;;
22525;SDS011;11429;50.842;4.386;2022-12-07T08:59:53;15.38;;;9.60;;
22525;SDS011;11429;50.842;4.386;2022-12-07T09:02:19;17.92;;;9.35;;
22525;SDS011;11429;50.842;4.386;2022-12-07T09:04:45;17.45;;;9.40;;
22525;SDS011;11429;50.842;4.386;2022-12-07T09:07:11;22.23;;;9.82;;
22525;SDS011;11429;50.842;4.386;2022-12-07T09:09:36;16.08;;;9.13;;
22525;SDS011;11429;50.842;4.386;2022-12-07T09:12:02;17.70;;;8.85;;
22525;SDS011;11429;50.842;4.386;2022-12-07T09:14:28;13.65;;;7.65;;
22525;SDS011;11429;50.842;4.386;2022-12-07T09:16:54;28.63;;;11.25;;
22525;SDS011;11429;50.842;4.386;2022-12-07T09:19:20;12.88;;;7.65;;
22525;SDS011;11429;50.842;4.386;2022-12-07T09:21:45;14.23;;;7.65;;
22525;SDS011;11429;50.842;4.386;2022-12-07T09:24:12;14.90;;;7.60;;
22525;SDS011;11429;50.842;4.386;2022-12-07T09:26:38;14.40;;;7.40;;
22525;SDS011;11429;50.842;4.386;2022-12-07T09:29:05;11.77;;;7.25;;
22525;SDS011;11429;50.842;4.386;2022-12-07T09:31:31;18.15;;;8.40;;
22525;SDS011;11429;50.842;4.386;2022-12-07T09:33:57;13.77;;;7.75;;
22525;SDS011;11429;50.842;4.386;2022-12-07T09:36:24;12.85;;;7.30;;
22525;SDS011;11429;50.842;4.386;2022-12-07T09:38:51;11.68;;;7.25;;
22525;SDS011;11429;50.842;4.386;2022-12-07T09:41:17;14.95;;;7.22;;
22525;SDS011;11429;50.842;4.386;2022-12-07T09:43:44;12.25;;;7.70;;
22525;SDS011;11429;50.842;4.386;2022-12-07T09:46:14;15.82;;;7.80;;
22525;SDS011;11429;50.842;4.386;2022-12-07T09:48:42;17.38;;;8.35;;
22525;SDS011;11429;50.842;4.386;2022-12-07T09:51:30;13.02;;;7.40;;
22525;SDS011;11429;50.842;4.386;2022-12-07T09:53:56;11.98;;;7.32;;
22525;SDS011;11429;50.842;4.386;2022-12-07T09:56:23;14.55;;;8.18;;
22525;SDS011;11429;50.842;4.386;2022-12-07T09:58:50;14.07;;;8.32;;
22525;SDS011;11429;50.842;4.386;2022-12-07T10:03:54;11.90;;;7.95;;
22525;SDS011;11429;50.842;4.386;2022-12-07T10:06:25;16.15;;;8.05;;
22525;SDS011;11429;50.842;4.386;2022-12-07T10:08:51;14.32;;;7.57;;
22525;SDS011;11429;50.842;4.386;2022-12-07T10:11:16;14.95;;;7.88;;
22525;SDS011;11429;50.842;4.386;2022-12-07T10:13:49;13.85;;;7.80;;
22525;SDS011;11429;50.842;4.386;2022-12-07T10:18:50;14.45;;;9.80;;
22525;SDS011;11429;50.842;4.386;2022-12-07T10:21:17;17.20;;;10.38;;
22525;SDS011;11429;50.842;4.386;2022-12-07T10:26:50;16.27;;;8.93;;
22525;SDS011;11429;50.842;4.386;2022-12-07T10:31:46;14.45;;;8.25;;
22525;SDS011;11429;50.842;4.386;2022-12-07T10:34:37;13.88;;;7.90;;
22525;SDS011;11429;50.842;4.386;2022-12-07T10:42:15;12.60;;;8.05;;
22525;SDS011;11429;50.842;4.386;2022-12-07T10:44:43;12.35;;;7.40;;
22525;SDS011;11429;50.842;4.386;2022-12-07T10:47:13;12.27;;;7.65;;
22525;SDS011;11429;50.842;4.386;2022-12-07T10:52:32;14.80;;;7.80;;
22525;SDS011;11429;50.842;4.386;2022-12-07T10:55:16;15.68;;;7.60;;
22525;SDS011;11429;50.842;4.386;2022-12-07T10:57:51;16.52;;;9.13;;
22525;SDS011;11429;50.842;4.386;2022-12-07T11:00:41;12.40;;;7.28;;
22525;SDS011;11429;50.842;4.386;2022-12-07T11:03:30;12.32;;;7.45;;
22525;SDS011;11429;50.842;4.386;2022-12-07T11:22:06;15.23;;;8.02;;
22525;SDS011;11429;50.842;4.386;2022-12-07T11:27:27;17.67;;;7.43;;
22525;SDS011;11429;50.842;4.386;2022-12-07T11:32:44;10.35;;;6.38;;
22525;SDS011;11429;50.842;4.386;2022-12-07T11:38:37;13.45;;;5.28;;
22525;SDS011;11429;50.842;4.386;2022-12-07T11:41:28;11.00;;;5.22;;
22525;SDS011;11429;50.842;4.386;2022-12-07T11:44:05;8.75;;;4.38;;
22525;SDS011;11429;50.842;4.386;2022-12-07T11:47:17;9.00;;;4.38;;
22525;SDS011;11429;50.842;4.386;2022-12-07T11:49:37;9.80;;;3.85;;
22525;SDS011;11429;50.842;4.386;2022-12-07T11:52:39;10.57;;;4.45;;
22525;SDS011;11429;50.842;4.386;2022-12-07T11:55:01;8.77;;;4.40;;
22525;SDS011;11429;50.842;4.386;2022-12-07T11:57:36;5.95;;;3.53;;
22525;SDS011;11429;50.842;4.386;2022-12-07T12:00:12;7.55;;;3.80;;
22525;SDS011;11429;50.842;4.386;2022-12-07T12:02:47;7.63;;;3.72;;
22525;SDS011;11429;50.842;4.386;2022-12-07T12:05:24;6.35;;;3.58;;
22525;SDS011;11429;50.842;4.386;2022-12-07T12:08:03;9.55;;;3.55;;
22525;SDS011;11429;50.842;4.386;2022-12-07T12:10:55;6.80;;;3.53;;
22525;SDS011;11429;50.842;4.386;2022-12-07T12:21:44;6.95;;;3.00;;
22525;SDS011;11429;50.842;4.386;2022-12-07T12:24:14;6.53;;;3.05;;
22525;SDS011;11429;50.842;4.386;2022-12-07T12:26:53;6.97;;;3.20;;
22525;SDS011;11429;50.842;4.386;2022-12-07T12:29:43;9.85;;;3.35;;
22525;SDS011;11429;50.842;4.386;2022-12-07T12:35:00;8.43;;;4.35;;
22525;SDS011;11429;50.842;4.386;2022-12-07T12:37:45;6.85;;;3.33;;
22525;SDS011;11429;50.842;4.386;2022-12-07T12:42:44;6.90;;;3.17;;
22525;SDS011;11429;50.842;4.386;2022-12-07T12:45:19;8.23;;;3.40;;
22525;SDS011;11429;50.842;4.386;2022-12-07T12:50:19;6.72;;;2.50;;
22525;SDS011;11429;50.842;4.386;2022-12-07T12:55:58;8.35;;;2.28;;
22525;SDS011;11429;50.842;4.386;2022-12-07T12:58:31;8.18;;;2.67;;
22525;SDS011;11429;50.842;4.386;2022-12-07T13:03:54;7.90;;;3.33;;
22525;SDS011;11429;50.842;4.386;2022-12-07T13:08:49;5.32;;;2.30;;
22525;SDS011;11429;50.842;4.386;2022-12-07T13:11:33;9.55;;;2.80;;
22525;SDS011;11429;50.842;4.386;2022-12-07T13:24:56;6.97;;;2.63;;
22525;SDS011;11429;50.842;4.386;2022-12-07T13:27:24;8.48;;;2.63;;
22525;SDS011;11429;50.842;4.386;2022-12-07T13:29:51;5.68;;;2.30;;
22525;SDS011;11429;50.842;4.386;2022-12-07T13:32:23;10.30;;;2.70;;
22525;SDS011;11429;50.842;4.386;2022-12-07T13:34:53;6.68;;;2.88;;
22525;SDS011;11429;50.842;4.386;2022-12-07T13:39:53;9.70;;;3.10;;
22525;SDS011;11429;50.842;4.386;2022-12-07T13:42:31;10.02;;;2.80;;
22525;SDS011;11429;50.842;4.386;2022-12-07T13:44:59;6.00;;;2.60;;
22525;SDS011;11429;50.842;4.386;2022-12-07T13:47:43;7.65;;;2.88;;
22525;SDS011;11429;50.842;4.386;2022-12-07T13:50:25;11.27;;;2.78;;
22525;SDS011;11429;50.842;4.386;2022-12-07T13:52:56;7.00;;;2.85;;
22525;SDS011;11429;50.842;4.386;2022-12-07T13:55:23;11.68;;;3.45;;
22525;SDS011;11429;50.842;4.386;2022-12-07T13:57:50;7.90;;;2.88;;
22525;SDS011;11429;50.842;4.386;2022-12-07T14:00:18;8.98;;;2.80;;
22525;SDS011;11429;50.842;4.386;2022-12-07T14:05:26;9.25;;;3.05;;
22525;SDS011;11429;50.842;4.386;2022-12-07T14:07:57;5.70;;;2.65;;
22525;SDS011;11429;50.842;4.386;2022-12-07T14:10:24;8.07;;;3.53;;
22525;SDS011;11429;50.842;4.386;2022-12-07T14:12:50;12.02;;;3.15;;
22525;SDS011;11429;50.842;4.386;2022-12-07T14:15:34;7.20;;;3.03;;
22525;SDS011;11429;50.842;4.386;2022-12-07T14:18:01;8.85;;;2.20;;
22525;SDS011;11429;50.842;4.386;2022-12-07T14:20:31;7.82;;;2.15;;
22525;SDS011;11429;50.842;4.386;2022-12-07T14:23:02;5.70;;;1.92;;
22525;SDS011;11429;50.842;4.386;2022-12-07T14:25:34;5.63;;;1.77;;
22525;SDS011;11429;50.842;4.386;2022-12-07T14:28:30;5.95;;;2.13;;
22525;SDS011;11429;50.842;4.386;2022-12-07T14:30:57;9.48;;;3.00;;
22525;SDS011;11429;50.842;4.386;2022-12-07T14:33:24;5.40;;;2.13;;
22525;SDS011;11429;50.842;4.386;2022-12-07T14:35:50;8.57;;;2.53;;
22525;SDS011;11429;50.842;4.386;2022-12-07T14:38:20;4.75;;;2.55;;
22525;SDS011;11429;50.842;4.386;2022-12-07T14:40:49;9.55;;;2.50;;
22525;SDS011;11429;50.842;4.386;2022-12-07T14:43:18;12.23;;;3.75;;
22525;SDS011;11429;50.842;4.386;2022-12-07T14:45:45;5.25;;;2.10;;
22525;SDS011;11429;50.842;4.386;2022-12-07T14:48:12;5.38;;;2.60;;
22525;SDS011;11429;50.842;4.386;2022-12-07T14:50:49;6.55;;;2.50;;
22525;SDS011;11429;50.842;4.386;2022-12-07T14:53:18;8.95;;;2.40;;
22525;SDS011;11429;50.842;4.386;2022-12-07T14:55:48;4.90;;;1.90;;
22525;SDS011;11429;50.842;4.386;2022-12-07T14:58:15;5.53;;;2.10;;
22525;SDS011;11429;50.842;4.386;2022-12-07T15:00:42;5.30;;;2.13;;
22525;SDS011;11429;50.842;4.386;2022-12-07T15:03:08;6.00;;;1.90;;
22525;SDS011;11429;50.842;4.386;2022-12-07T15:05:34;4.20;;;1.70;;
22525;SDS011;11429;50.842;4.386;2022-12-07T15:08:00;3.63;;;1.50;;
22525;SDS011;11429;50.842;4.386;2022-12-07T15:10:30;5.10;;;1.80;;
22525;SDS011;11429;50.842;4.386;2022-12-07T15:12:58;5.95;;;1.85;;
22525;SDS011;11429;50.842;4.386;2022-12-07T15:15:49;6.97;;;1.75;;
22525;SDS011;11429;50.842;4.386;2022-12-07T15:18:17;7.22;;;2.20;;
22525;SDS011;11429;50.842;4.386;2022-12-07T15:20:44;4.90;;;1.50;;
22525;SDS011;11429;50.842;4.386;2022-12-07T15:23:11;6.78;;;2.65;;
22525;SDS011;11429;50.842;4.386;2022-12-07T15:25:39;6.60;;;1.75;;
22525;SDS011;11429;50.842;4.386;2022-12-07T15:28:06;5.80;;;1.90;;
22525;SDS011;11429;50.842;4.386;2022-12-07T15:30:31;6.95;;;2.72;;
22525;SDS011;11429;50.842;4.386;2022-12-07T15:32:59;6.07;;;2.50;;
22525;SDS011;11429;50.842;4.386;2022-12-07T15:35:25;8.27;;;2.58;;
22525;SDS011;11429;50.842;4.386;2022-12-07T15:37:51;3.83;;;2.17;;
22525;SDS011;11429;50.842;4.386;2022-12-07T15:40:16;5.25;;;2.42;;
22525;SDS011;11429;50.842;4.386;2022-12-07T15:42:42;6.28;;;2.40;;
22525;SDS011;11429;50.842;4.386;2022-12-07T15:45:08;5.97;;;3.03;;
22525;SDS011;11429;50.842;4.386;2022-12-07T15:47:35;7.75;;;2.55;;
22525;SDS011;11429;50.842;4.386;2022-12-07T15:50:03;8.98;;;2.45;;
22525;SDS011;11429;50.842;4.386;2022-12-07T15:52:33;5.43;;;2.72;;
22525;SDS011;11429;50.842;4.386;2022-12-07T15:54:59;8.32;;;3.60;;
22525;SDS011;11429;50.842;4.386;2022-12-07T15:57:25;7.03;;;3.25;;
22525;SDS011;11429;50.842;4.386;2022-12-07T15:59:52;5.35;;;3.63;;
22525;SDS011;11429;50.842;4.386;2022-12-07T16:02:18;6.90;;;4.25;;
22525;SDS011;11429;50.842;4.386;2022-12-07T16:04:44;8.10;;;3.80;;
22525;SDS011;11429;50.842;4.386;2022-12-07T16:07:11;5.38;;;3.72;;
22525;SDS011;11429;50.842;4.386;2022-12-07T16:09:37;8.15;;;4.10;;
22525;SDS011;11429;50.842;4.386;2022-12-07T16:12:03;8.05;;;4.47;;
22525;SDS011;11429;50.842;4.386;2022-12-07T16:14:29;8.88;;;5.97;;
22525;SDS011;11429;50.842;4.386;2022-12-07T16:16:57;10.77;;;5.55;;
22525;SDS011;11429;50.842;4.386;2022-12-07T16:19:22;9.52;;;4.63;;
22525;SDS011;11429;50.842;4.386;2022-12-07T16:21:48;9.43;;;4.93;;
22525;SDS011;11429;50.842;4.386;2022-12-07T16:24:14;9.15;;;4.65;;
22525;SDS011;11429;50.842;4.386;2022-12-07T16:26:40;11.38;;;4.90;;
22525;SDS011;11429;50.842;4.386;2022-12-07T16:29:06;8.32;;;4.97;;
22525;SDS011;11429;50.842;4.386;2022-12-07T16:31:31;8.18;;;4.60;;
22525;SDS011;11429;50.842;4.386;2022-12-07T16:33:58;8.30;;;4.05;;
22525;SDS011;11429;50.842;4.386;2022-12-07T16:36:24;7.45;;;4.13;;
22525;SDS011;11429;50.842;4.386;2022-12-07T16:38:52;9.70;;;4.00;;